sensor_id;sensor_type;location;lat;lon;timestamp;P1;durP1;ratioP1;P2;durP2;ratioP2
30247;SDS011;17063;50.892;4.702;2022-12-18T00:01:16;33.13;;;14.38;;
30247;SDS011;17063;50.892;4.702;2022-12-18T00:03:45;37.13;;;14.90;;
30247;SDS011;17063;50.892;4.702;2022-12-18T00:06:13;37.08;;;15.00;;
30247;SDS011;17063;50.892;4.702;2022-12-18T00:08:41;36.15;;;15.18;;
30247;SDS011;17063;50.892;4.702;2022-12-18T00:11:13;33.47;;;15.02;;
30247;SDS011;17063;50.892;4.702;2022-12-18T00:13:42;37.38;;;14.70;;
30247;SDS011;17063;50.892;4.702;2022-12-18T00:16:10;40.22;;;15.40;;
30247;SDS011;17063;50.892;4.702;2022-12-18T00:18:38;34.95;;;14.57;;
30247;SDS011;17063;50.892;4.702;2022-12-18T00:21:07;30.88;;;13.98;;
30247;SDS011;17063;50.892;4.702;2022-12-18T00:23:35;33.03;;;14.45;;
30247;SDS011;17063;50.892;4.702;2022-12-18T00:26:07;35.08;;;14.85;;
30247;SDS011;17063;50.892;4.702;2022-12-18T00:28:37;32.78;;;14.15;;
30247;SDS011;17063;50.892;4.702;2022-12-18T00:31:04;35.22;;;14.63;;
30247;SDS011;17063;50.892;4.702;2022-12-18T00:33:38;39.53;;;14.23;;
30247;SDS011;17063;50.892;4.702;2022-12-18T00:38:40;33.05;;;14.35;;
30247;SDS011;17063;50.892;4.702;2022-12-18T00:41:08;35.13;;;14.48;;
30247;SDS011;17063;50.892;4.702;2022-12-18T00:43:35;31.80;;;13.95;;
30247;SDS011;17063;50.892;4.702;2022-12-18T00:46:03;34.28;;;14.27;;
30247;SDS011;17063;50.892;4.702;2022-12-18T00:48:30;32.92;;;14.32;;
30247;SDS011;17063;50.892;4.702;2022-12-18T00:50:57;39.78;;;15.80;;
30247;SDS011;17063;50.892;4.702;2022-12-18T00:53:24;37.78;;;15.35;;
30247;SDS011;17063;50.892;4.702;2022-12-18T00:55:51;35.00;;;14.85;;
30247;SDS011;17063;50.892;4.702;2022-12-18T00:58:18;36.08;;;13.95;;
30247;SDS011;17063;50.892;4.702;2022-12-18T01:00:45;33.63;;;14.65;;
30247;SDS011;17063;50.892;4.702;2022-12-18T01:03:16;31.92;;;12.95;;
30247;SDS011;17063;50.892;4.702;2022-12-18T01:05:43;31.85;;;14.25;;
30247;SDS011;17063;50.892;4.702;2022-12-18T01:08:10;37.38;;;13.73;;
30247;SDS011;17063;50.892;4.702;2022-12-18T01:10:39;32.67;;;13.13;;
30247;SDS011;17063;50.892;4.702;2022-12-18T01:13:07;31.52;;;13.73;;
30247;SDS011;17063;50.892;4.702;2022-12-18T01:15:35;31.52;;;12.82;;
30247;SDS011;17063;50.892;4.702;2022-12-18T01:18:02;32.90;;;13.60;;
30247;SDS011;17063;50.892;4.702;2022-12-18T01:20:30;31.00;;;12.68;;
30247;SDS011;17063;50.892;4.702;2022-12-18T01:22:57;31.77;;;13.10;;
30247;SDS011;17063;50.892;4.702;2022-12-18T01:25:25;30.60;;;13.70;;
30247;SDS011;17063;50.892;4.702;2022-12-18T01:27:52;30.08;;;13.15;;
30247;SDS011;17063;50.892;4.702;2022-12-18T01:30:20;29.15;;;12.57;;
30247;SDS011;17063;50.892;4.702;2022-12-18T01:32:47;27.40;;;12.00;;
30247;SDS011;17063;50.892;4.702;2022-12-18T01:35:14;32.97;;;13.35;;
30247;SDS011;17063;50.892;4.702;2022-12-18T01:37:40;32.05;;;13.00;;
30247;SDS011;17063;50.892;4.702;2022-12-18T01:40:07;29.80;;;12.00;;
30247;SDS011;17063;50.892;4.702;2022-12-18T01:42:35;33.70;;;12.57;;
30247;SDS011;17063;50.892;4.702;2022-12-18T01:47:38;27.50;;;12.18;;
30247;SDS011;17063;50.892;4.702;2022-12-18T01:52:47;36.35;;;13.73;;
30247;SDS011;17063;50.892;4.702;2022-12-18T01:55:17;32.25;;;13.63;;
30247;SDS011;17063;50.892;4.702;2022-12-18T01:57:46;32.63;;;12.77;;
30247;SDS011;17063;50.892;4.702;2022-12-18T02:00:14;33.28;;;13.35;;
30247;SDS011;17063;50.892;4.702;2022-12-18T02:02:44;27.60;;;12.13;;
30247;SDS011;17063;50.892;4.702;2022-12-18T02:05:13;27.60;;;12.55;;
30247;SDS011;17063;50.892;4.702;2022-12-18T02:16:01;26.77;;;10.75;;
30247;SDS011;17063;50.892;4.702;2022-12-18T02:18:34;25.10;;;11.00;;
30247;SDS011;17063;50.892;4.702;2022-12-18T02:23:43;26.48;;;10.57;;
30247;SDS011;17063;50.892;4.702;2022-12-18T02:26:30;25.77;;;11.00;;
30247;SDS011;17063;50.892;4.702;2022-12-18T02:31:53;24.80;;;10.55;;
30247;SDS011;17063;50.892;4.702;2022-12-18T02:34:23;26.38;;;10.38;;
30247;SDS011;17063;50.892;4.702;2022-12-18T02:36:54;23.60;;;9.02;;
30247;SDS011;17063;50.892;4.702;2022-12-18T02:39:22;24.15;;;10.05;;
30247;SDS011;17063;50.892;4.702;2022-12-18T02:42:01;21.85;;;9.52;;
30247;SDS011;17063;50.892;4.702;2022-12-18T02:44:34;23.42;;;10.00;;
30247;SDS011;17063;50.892;4.702;2022-12-18T02:47:10;25.02;;;10.63;;
30247;SDS011;17063;50.892;4.702;2022-12-18T02:52:34;22.67;;;10.18;;
30247;SDS011;17063;50.892;4.702;2022-12-18T02:58:03;25.65;;;9.85;;
30247;SDS011;17063;50.892;4.702;2022-12-18T03:00:37;26.50;;;10.52;;
30247;SDS011;17063;50.892;4.702;2022-12-18T03:03:10;33.13;;;11.70;;
30247;SDS011;17063;50.892;4.702;2022-12-18T03:05:50;29.58;;;10.80;;
30247;SDS011;17063;50.892;4.702;2022-12-18T03:08:25;28.60;;;10.52;;
30247;SDS011;17063;50.892;4.702;2022-12-18T03:10:58;33.65;;;11.43;;
30247;SDS011;17063;50.892;4.702;2022-12-18T03:13:36;29.90;;;12.02;;
30247;SDS011;17063;50.892;4.702;2022-12-18T03:16:05;29.83;;;11.65;;
30247;SDS011;17063;50.892;4.702;2022-12-18T03:18:34;26.90;;;11.82;;
30247;SDS011;17063;50.892;4.702;2022-12-18T03:21:04;31.55;;;12.75;;
30247;SDS011;17063;50.892;4.702;2022-12-18T03:23:37;33.85;;;12.05;;
30247;SDS011;17063;50.892;4.702;2022-12-18T03:26:15;32.50;;;12.55;;
30247;SDS011;17063;50.892;4.702;2022-12-18T03:28:46;30.13;;;11.73;;
30247;SDS011;17063;50.892;4.702;2022-12-18T03:31:18;26.48;;;11.65;;
30247;SDS011;17063;50.892;4.702;2022-12-18T03:33:53;27.23;;;12.00;;
30247;SDS011;17063;50.892;4.702;2022-12-18T03:36:37;27.33;;;10.80;;
30247;SDS011;17063;50.892;4.702;2022-12-18T03:39:04;31.92;;;12.57;;
30247;SDS011;17063;50.892;4.702;2022-12-18T03:41:42;28.15;;;12.13;;
30247;SDS011;17063;50.892;4.702;2022-12-18T03:44:26;28.33;;;11.93;;
30247;SDS011;17063;50.892;4.702;2022-12-18T03:49:46;24.45;;;11.18;;
30247;SDS011;17063;50.892;4.702;2022-12-18T03:54:52;26.40;;;11.15;;
30247;SDS011;17063;50.892;4.702;2022-12-18T03:57:21;30.05;;;11.15;;
30247;SDS011;17063;50.892;4.702;2022-12-18T03:59:53;29.60;;;11.20;;
30247;SDS011;17063;50.892;4.702;2022-12-18T04:02:26;21.27;;;9.20;;
30247;SDS011;17063;50.892;4.702;2022-12-18T04:04:53;23.17;;;10.48;;
30247;SDS011;17063;50.892;4.702;2022-12-18T04:07:23;27.30;;;11.35;;
30247;SDS011;17063;50.892;4.702;2022-12-18T04:09:51;28.90;;;11.02;;
30247;SDS011;17063;50.892;4.702;2022-12-18T04:12:25;27.05;;;11.05;;
30247;SDS011;17063;50.892;4.702;2022-12-18T04:14:52;27.60;;;10.70;;
30247;SDS011;17063;50.892;4.702;2022-12-18T04:17:19;28.10;;;11.30;;
30247;SDS011;17063;50.892;4.702;2022-12-18T04:19:46;23.70;;;9.80;;
30247;SDS011;17063;50.892;4.702;2022-12-18T04:22:13;27.60;;;9.85;;
30247;SDS011;17063;50.892;4.702;2022-12-18T04:24:44;25.15;;;10.05;;
30247;SDS011;17063;50.892;4.702;2022-12-18T04:27:19;23.05;;;9.10;;
30247;SDS011;17063;50.892;4.702;2022-12-18T04:29:49;19.33;;;8.98;;
30247;SDS011;17063;50.892;4.702;2022-12-18T04:32:16;18.23;;;8.40;;
30247;SDS011;17063;50.892;4.702;2022-12-18T04:34:43;19.52;;;8.10;;
30247;SDS011;17063;50.892;4.702;2022-12-18T04:37:10;18.17;;;7.80;;
30247;SDS011;17063;50.892;4.702;2022-12-18T04:39:38;19.30;;;8.23;;
30247;SDS011;17063;50.892;4.702;2022-12-18T04:42:11;21.25;;;8.13;;
30247;SDS011;17063;50.892;4.702;2022-12-18T04:44:38;22.15;;;8.70;;
30247;SDS011;17063;50.892;4.702;2022-12-18T04:47:04;19.13;;;7.78;;
30247;SDS011;17063;50.892;4.702;2022-12-18T04:49:31;20.02;;;7.80;;
30247;SDS011;17063;50.892;4.702;2022-12-18T04:51:58;20.55;;;8.27;;
30247;SDS011;17063;50.892;4.702;2022-12-18T04:54:25;23.20;;;8.38;;
30247;SDS011;17063;50.892;4.702;2022-12-18T04:56:51;18.95;;;8.63;;
30247;SDS011;17063;50.892;4.702;2022-12-18T04:59:19;21.10;;;9.25;;
30247;SDS011;17063;50.892;4.702;2022-12-18T05:01:46;24.80;;;9.38;;
30247;SDS011;17063;50.892;4.702;2022-12-18T05:04:13;19.55;;;9.25;;
30247;SDS011;17063;50.892;4.702;2022-12-18T05:06:39;23.38;;;10.07;;
30247;SDS011;17063;50.892;4.702;2022-12-18T05:09:06;26.92;;;10.40;;
30247;SDS011;17063;50.892;4.702;2022-12-18T05:11:33;22.38;;;10.07;;
30247;SDS011;17063;50.892;4.702;2022-12-18T05:14:01;29.48;;;11.07;;
30247;SDS011;17063;50.892;4.702;2022-12-18T05:16:28;22.92;;;9.60;;
30247;SDS011;17063;50.892;4.702;2022-12-18T05:18:55;23.23;;;9.77;;
30247;SDS011;17063;50.892;4.702;2022-12-18T05:21:22;25.30;;;10.18;;
30247;SDS011;17063;50.892;4.702;2022-12-18T05:23:48;18.38;;;9.15;;
30247;SDS011;17063;50.892;4.702;2022-12-18T05:26:17;27.50;;;10.73;;
30247;SDS011;17063;50.892;4.702;2022-12-18T05:28:45;23.33;;;9.68;;
30247;SDS011;17063;50.892;4.702;2022-12-18T05:31:12;23.73;;;11.00;;
30247;SDS011;17063;50.892;4.702;2022-12-18T05:33:39;21.75;;;9.82;;
30247;SDS011;17063;50.892;4.702;2022-12-18T05:36:07;25.10;;;10.20;;
30247;SDS011;17063;50.892;4.702;2022-12-18T05:38:35;22.40;;;9.52;;
30247;SDS011;17063;50.892;4.702;2022-12-18T05:41:04;24.55;;;9.45;;
30247;SDS011;17063;50.892;4.702;2022-12-18T05:43:33;21.88;;;9.30;;
30247;SDS011;17063;50.892;4.702;2022-12-18T05:46:06;21.58;;;9.60;;
30247;SDS011;17063;50.892;4.702;2022-12-18T05:48:33;25.67;;;10.10;;
30247;SDS011;17063;50.892;4.702;2022-12-18T05:51:05;25.00;;;9.50;;
30247;SDS011;17063;50.892;4.702;2022-12-18T05:53:33;18.45;;;8.65;;
30247;SDS011;17063;50.892;4.702;2022-12-18T05:56:01;23.90;;;9.50;;
30247;SDS011;17063;50.892;4.702;2022-12-18T05:58:30;22.23;;;9.93;;
30247;SDS011;17063;50.892;4.702;2022-12-18T06:00:57;21.27;;;9.43;;
30247;SDS011;17063;50.892;4.702;2022-12-18T06:03:24;20.55;;;9.05;;
30247;SDS011;17063;50.892;4.702;2022-12-18T06:05:59;18.23;;;9.40;;
30247;SDS011;17063;50.892;4.702;2022-12-18T06:08:25;24.42;;;9.30;;
30247;SDS011;17063;50.892;4.702;2022-12-18T06:10:52;25.75;;;10.18;;
30247;SDS011;17063;50.892;4.702;2022-12-18T06:13:19;19.20;;;9.60;;
30247;SDS011;17063;50.892;4.702;2022-12-18T06:15:46;22.75;;;9.65;;
30247;SDS011;17063;50.892;4.702;2022-12-18T06:18:13;22.83;;;9.55;;
30247;SDS011;17063;50.892;4.702;2022-12-18T06:20:41;22.13;;;9.07;;
30247;SDS011;17063;50.892;4.702;2022-12-18T06:23:08;22.75;;;9.55;;
30247;SDS011;17063;50.892;4.702;2022-12-18T06:25:39;24.60;;;9.73;;
30247;SDS011;17063;50.892;4.702;2022-12-18T06:28:05;20.40;;;9.30;;
30247;SDS011;17063;50.892;4.702;2022-12-18T06:30:32;24.20;;;9.18;;
30247;SDS011;17063;50.892;4.702;2022-12-18T06:32:59;25.20;;;10.27;;
30247;SDS011;17063;50.892;4.702;2022-12-18T06:35:26;23.25;;;9.35;;
30247;SDS011;17063;50.892;4.702;2022-12-18T06:37:53;26.40;;;10.57;;
30247;SDS011;17063;50.892;4.702;2022-12-18T06:40:20;24.33;;;9.70;;
30247;SDS011;17063;50.892;4.702;2022-12-18T06:42:47;23.17;;;10.10;;
30247;SDS011;17063;50.892;4.702;2022-12-18T06:45:14;24.08;;;8.43;;
30247;SDS011;17063;50.892;4.702;2022-12-18T06:47:41;21.40;;;9.32;;
30247;SDS011;17063;50.892;4.702;2022-12-18T06:50:08;22.60;;;9.57;;
30247;SDS011;17063;50.892;4.702;2022-12-18T06:52:36;26.17;;;9.68;;
30247;SDS011;17063;50.892;4.702;2022-12-18T06:55:03;27.50;;;9.30;;
30247;SDS011;17063;50.892;4.702;2022-12-18T06:57:30;21.48;;;9.02;;
30247;SDS011;17063;50.892;4.702;2022-12-18T06:59:58;24.40;;;9.85;;
30247;SDS011;17063;50.892;4.702;2022-12-18T07:02:25;28.80;;;9.48;;
30247;SDS011;17063;50.892;4.702;2022-12-18T07:04:52;25.02;;;10.30;;
30247;SDS011;17063;50.892;4.702;2022-12-18T07:07:19;26.42;;;9.98;;
30247;SDS011;17063;50.892;4.702;2022-12-18T07:09:46;21.88;;;9.68;;
30247;SDS011;17063;50.892;4.702;2022-12-18T07:12:16;22.17;;;9.35;;
30247;SDS011;17063;50.892;4.702;2022-12-18T07:14:52;28.83;;;10.57;;
30247;SDS011;17063;50.892;4.702;2022-12-18T07:17:19;22.05;;;9.38;;
30247;SDS011;17063;50.892;4.702;2022-12-18T07:19:46;22.58;;;8.98;;
30247;SDS011;17063;50.892;4.702;2022-12-18T07:22:12;23.17;;;8.90;;
30247;SDS011;17063;50.892;4.702;2022-12-18T07:24:39;24.13;;;9.07;;
30247;SDS011;17063;50.892;4.702;2022-12-18T07:27:06;22.38;;;8.68;;
30247;SDS011;17063;50.892;4.702;2022-12-18T07:29:34;23.30;;;8.73;;
30247;SDS011;17063;50.892;4.702;2022-12-18T07:32:00;24.90;;;9.13;;
30247;SDS011;17063;50.892;4.702;2022-12-18T07:34:27;20.65;;;8.80;;
30247;SDS011;17063;50.892;4.702;2022-12-18T07:36:54;26.48;;;10.00;;
30247;SDS011;17063;50.892;4.702;2022-12-18T07:39:22;23.98;;;9.13;;
30247;SDS011;17063;50.892;4.702;2022-12-18T07:41:49;26.25;;;9.52;;
30247;SDS011;17063;50.892;4.702;2022-12-18T07:44:38;26.08;;;9.63;;
30247;SDS011;17063;50.892;4.702;2022-12-18T07:47:05;21.73;;;8.73;;
30247;SDS011;17063;50.892;4.702;2022-12-18T07:49:37;20.25;;;9.20;;
30247;SDS011;17063;50.892;4.702;2022-12-18T07:52:05;22.27;;;9.15;;
30247;SDS011;17063;50.892;4.702;2022-12-18T07:54:32;21.42;;;8.82;;
30247;SDS011;17063;50.892;4.702;2022-12-18T07:56:59;23.55;;;9.85;;
30247;SDS011;17063;50.892;4.702;2022-12-18T07:59:26;24.15;;;8.70;;
30247;SDS011;17063;50.892;4.702;2022-12-18T08:01:53;25.05;;;10.32;;
30247;SDS011;17063;50.892;4.702;2022-12-18T08:04:20;27.17;;;10.52;;
30247;SDS011;17063;50.892;4.702;2022-12-18T08:06:46;25.55;;;8.98;;
30247;SDS011;17063;50.892;4.702;2022-12-18T08:09:14;26.73;;;9.00;;
30247;SDS011;17063;50.892;4.702;2022-12-18T08:11:41;23.88;;;9.27;;
30247;SDS011;17063;50.892;4.702;2022-12-18T08:14:08;27.88;;;8.48;;
30247;SDS011;17063;50.892;4.702;2022-12-18T08:16:35;24.95;;;9.07;;
30247;SDS011;17063;50.892;4.702;2022-12-18T08:19:02;25.60;;;9.73;;
30247;SDS011;17063;50.892;4.702;2022-12-18T08:21:30;24.90;;;9.38;;
30247;SDS011;17063;50.892;4.702;2022-12-18T08:23:58;20.58;;;8.60;;
30247;SDS011;17063;50.892;4.702;2022-12-18T08:26:29;23.30;;;9.50;;
30247;SDS011;17063;50.892;4.702;2022-12-18T08:28:58;23.88;;;9.07;;
30247;SDS011;17063;50.892;4.702;2022-12-18T08:31:26;21.17;;;8.38;;
30247;SDS011;17063;50.892;4.702;2022-12-18T08:33:54;24.27;;;8.77;;
30247;SDS011;17063;50.892;4.702;2022-12-18T08:36:22;24.05;;;8.68;;
30247;SDS011;17063;50.892;4.702;2022-12-18T08:38:53;17.33;;;8.27;;
30247;SDS011;17063;50.892;4.702;2022-12-18T08:41:20;23.38;;;8.45;;
30247;SDS011;17063;50.892;4.702;2022-12-18T08:43:47;24.08;;;8.52;;
30247;SDS011;17063;50.892;4.702;2022-12-18T08:46:42;19.75;;;8.02;;
30247;SDS011;17063;50.892;4.702;2022-12-18T08:49:10;19.23;;;7.75;;
30247;SDS011;17063;50.892;4.702;2022-12-18T08:51:41;22.17;;;7.70;;
30247;SDS011;17063;50.892;4.702;2022-12-18T08:54:09;15.65;;;6.90;;
30247;SDS011;17063;50.892;4.702;2022-12-18T08:56:42;20.98;;;8.55;;
30247;SDS011;17063;50.892;4.702;2022-12-18T08:59:13;20.60;;;8.73;;
30247;SDS011;17063;50.892;4.702;2022-12-18T09:01:45;18.23;;;8.35;;
30247;SDS011;17063;50.892;4.702;2022-12-18T09:04:12;16.67;;;7.70;;
30247;SDS011;17063;50.892;4.702;2022-12-18T09:06:40;19.23;;;8.07;;
30247;SDS011;17063;50.892;4.702;2022-12-18T09:09:07;18.38;;;7.55;;
30247;SDS011;17063;50.892;4.702;2022-12-18T09:11:34;18.73;;;7.72;;
30247;SDS011;17063;50.892;4.702;2022-12-18T09:14:01;21.83;;;8.10;;
30247;SDS011;17063;50.892;4.702;2022-12-18T09:16:28;22.63;;;8.05;;
30247;SDS011;17063;50.892;4.702;2022-12-18T09:18:58;17.05;;;7.55;;
30247;SDS011;17063;50.892;4.702;2022-12-18T09:21:27;18.70;;;7.75;;
30247;SDS011;17063;50.892;4.702;2022-12-18T09:23:56;15.82;;;7.22;;
30247;SDS011;17063;50.892;4.702;2022-12-18T09:26:23;16.77;;;7.68;;
30247;SDS011;17063;50.892;4.702;2022-12-18T09:28:51;16.77;;;7.47;;
30247;SDS011;17063;50.892;4.702;2022-12-18T09:31:20;19.13;;;8.10;;
30247;SDS011;17063;50.892;4.702;2022-12-18T09:33:47;20.23;;;8.07;;
30247;SDS011;17063;50.892;4.702;2022-12-18T09:36:15;15.82;;;7.22;;
30247;SDS011;17063;50.892;4.702;2022-12-18T09:38:43;14.68;;;7.45;;
30247;SDS011;17063;50.892;4.702;2022-12-18T09:43:53;16.52;;;7.00;;
30247;SDS011;17063;50.892;4.702;2022-12-18T09:46:25;15.20;;;7.22;;
30247;SDS011;17063;50.892;4.702;2022-12-18T09:48:56;16.08;;;7.20;;
30247;SDS011;17063;50.892;4.702;2022-12-18T09:51:31;16.98;;;6.82;;
30247;SDS011;17063;50.892;4.702;2022-12-18T09:54:07;16.20;;;6.90;;
30247;SDS011;17063;50.892;4.702;2022-12-18T09:56:40;24.70;;;7.40;;
30247;SDS011;17063;50.892;4.702;2022-12-18T10:01:46;13.15;;;6.72;;
30247;SDS011;17063;50.892;4.702;2022-12-18T10:04:14;15.07;;;6.97;;
30247;SDS011;17063;50.892;4.702;2022-12-18T10:15:05;15.35;;;6.90;;
30247;SDS011;17063;50.892;4.702;2022-12-18T10:17:58;15.98;;;7.32;;
30247;SDS011;17063;50.892;4.702;2022-12-18T10:20:32;15.38;;;6.97;;
30247;SDS011;17063;50.892;4.702;2022-12-18T10:23:08;14.93;;;6.85;;
30247;SDS011;17063;50.892;4.702;2022-12-18T10:28:21;19.42;;;7.70;;
30247;SDS011;17063;50.892;4.702;2022-12-18T10:30:48;14.43;;;7.03;;
30247;SDS011;17063;50.892;4.702;2022-12-18T10:33:16;18.88;;;7.15;;
30247;SDS011;17063;50.892;4.702;2022-12-18T10:35:48;17.27;;;7.53;;
30247;SDS011;17063;50.892;4.702;2022-12-18T10:43:22;15.93;;;7.15;;
30247;SDS011;17063;50.892;4.702;2022-12-18T10:51:08;14.70;;;6.82;;
30247;SDS011;17063;50.892;4.702;2022-12-18T10:53:39;17.00;;;6.85;;
30247;SDS011;17063;50.892;4.702;2022-12-18T10:56:06;14.65;;;6.80;;
30247;SDS011;17063;50.892;4.702;2022-12-18T10:58:34;14.00;;;6.90;;
30247;SDS011;17063;50.892;4.702;2022-12-18T11:03:38;12.20;;;6.63;;
30247;SDS011;17063;50.892;4.702;2022-12-18T11:06:27;15.60;;;7.63;;
30247;SDS011;17063;50.892;4.702;2022-12-18T11:08:58;13.10;;;6.55;;
30247;SDS011;17063;50.892;4.702;2022-12-18T11:11:27;12.70;;;6.78;;
30247;SDS011;17063;50.892;4.702;2022-12-18T11:14:04;16.75;;;7.25;;
30247;SDS011;17063;50.892;4.702;2022-12-18T11:17:16;14.93;;;6.63;;
30247;SDS011;17063;50.892;4.702;2022-12-18T11:19:51;16.20;;;7.88;;
30247;SDS011;17063;50.892;4.702;2022-12-18T11:22:31;16.38;;;7.43;;
30247;SDS011;17063;50.892;4.702;2022-12-18T11:25:06;13.48;;;7.38;;
30247;SDS011;17063;50.892;4.702;2022-12-18T11:30:30;17.02;;;7.70;;
30247;SDS011;17063;50.892;4.702;2022-12-18T11:33:12;17.80;;;7.55;;
30247;SDS011;17063;50.892;4.702;2022-12-18T11:35:55;15.15;;;7.32;;
30247;SDS011;17063;50.892;4.702;2022-12-18T11:38:32;15.95;;;7.47;;
30247;SDS011;17063;50.892;4.702;2022-12-18T11:44:16;15.68;;;7.80;;
30247;SDS011;17063;50.892;4.702;2022-12-18T11:46:51;20.35;;;8.32;;
30247;SDS011;17063;50.892;4.702;2022-12-18T11:51:54;16.80;;;7.72;;
30247;SDS011;17063;50.892;4.702;2022-12-18T11:54:24;17.27;;;8.30;;
30247;SDS011;17063;50.892;4.702;2022-12-18T11:56:59;19.07;;;8.03;;
30247;SDS011;17063;50.892;4.702;2022-12-18T12:05:25;17.45;;;8.65;;
30247;SDS011;17063;50.892;4.702;2022-12-18T12:14:27;18.23;;;8.57;;
30247;SDS011;17063;50.892;4.702;2022-12-18T12:19:26;19.17;;;9.63;;
30247;SDS011;17063;50.892;4.702;2022-12-18T12:27:30;17.50;;;9.15;;
30247;SDS011;17063;50.892;4.702;2022-12-18T12:30:07;20.02;;;9.38;;
30247;SDS011;17063;50.892;4.702;2022-12-18T12:38:33;22.92;;;9.00;;
30247;SDS011;17063;50.892;4.702;2022-12-18T12:41:03;15.43;;;8.18;;
30247;SDS011;17063;50.892;4.702;2022-12-18T12:46:17;18.08;;;8.85;;
30247;SDS011;17063;50.892;4.702;2022-12-18T12:48:49;19.70;;;8.43;;
30247;SDS011;17063;50.892;4.702;2022-12-18T12:51:30;17.17;;;9.27;;
30247;SDS011;17063;50.892;4.702;2022-12-18T12:54:00;19.45;;;8.63;;
30247;SDS011;17063;50.892;4.702;2022-12-18T12:56:36;17.67;;;9.18;;
30247;SDS011;17063;50.892;4.702;2022-12-18T12:59:22;19.67;;;9.95;;
30247;SDS011;17063;50.892;4.702;2022-12-18T13:02:11;20.52;;;9.70;;
30247;SDS011;17063;50.892;4.702;2022-12-18T13:07:33;19.83;;;9.18;;
30247;SDS011;17063;50.892;4.702;2022-12-18T13:15:50;21.92;;;10.43;;
30247;SDS011;17063;50.892;4.702;2022-12-18T13:18:32;19.83;;;9.68;;
30247;SDS011;17063;50.892;4.702;2022-12-18T13:31:15;18.50;;;9.70;;
30247;SDS011;17063;50.892;4.702;2022-12-18T13:34:28;16.20;;;8.20;;
30247;SDS011;17063;50.892;4.702;2022-12-18T13:37:38;16.63;;;8.52;;
30247;SDS011;17063;50.892;4.702;2022-12-18T13:40:05;18.15;;;7.78;;
30247;SDS011;17063;50.892;4.702;2022-12-18T13:43:20;18.40;;;8.50;;
30247;SDS011;17063;50.892;4.702;2022-12-18T13:48:29;20.58;;;9.10;;
30247;SDS011;17063;50.892;4.702;2022-12-18T13:51:00;20.40;;;9.05;;
30247;SDS011;17063;50.892;4.702;2022-12-18T13:53:35;18.65;;;9.43;;
30247;SDS011;17063;50.892;4.702;2022-12-18T13:56:09;17.33;;;9.05;;
30247;SDS011;17063;50.892;4.702;2022-12-18T13:58:42;18.15;;;9.18;;
30247;SDS011;17063;50.892;4.702;2022-12-18T14:01:23;18.83;;;8.98;;
30247;SDS011;17063;50.892;4.702;2022-12-18T14:03:50;18.20;;;8.70;;
30247;SDS011;17063;50.892;4.702;2022-12-18T14:06:17;19.60;;;9.30;;
30247;SDS011;17063;50.892;4.702;2022-12-18T14:08:44;19.33;;;8.75;;
30247;SDS011;17063;50.892;4.702;2022-12-18T14:11:18;22.10;;;9.23;;
30247;SDS011;17063;50.892;4.702;2022-12-18T14:13:48;20.02;;;9.80;;
30247;SDS011;17063;50.892;4.702;2022-12-18T14:16:16;19.15;;;9.63;;
30247;SDS011;17063;50.892;4.702;2022-12-18T14:18:54;22.05;;;9.40;;
30247;SDS011;17063;50.892;4.702;2022-12-18T14:21:40;21.75;;;10.45;;
30247;SDS011;17063;50.892;4.702;2022-12-18T14:24:17;20.20;;;9.13;;
30247;SDS011;17063;50.892;4.702;2022-12-18T14:26:46;19.98;;;9.52;;
30247;SDS011;17063;50.892;4.702;2022-12-18T14:29:28;19.67;;;9.48;;
30247;SDS011;17063;50.892;4.702;2022-12-18T14:34:59;21.27;;;9.52;;
30247;SDS011;17063;50.892;4.702;2022-12-18T14:37:39;21.77;;;9.77;;
30247;SDS011;17063;50.892;4.702;2022-12-18T14:40:11;24.10;;;10.27;;
30247;SDS011;17063;50.892;4.702;2022-12-18T14:42:39;22.33;;;10.13;;
30247;SDS011;17063;50.892;4.702;2022-12-18T14:50:40;23.02;;;9.95;;
30247;SDS011;17063;50.892;4.702;2022-12-18T14:53:18;23.77;;;10.60;;
30247;SDS011;17063;50.892;4.702;2022-12-18T14:56:12;21.55;;;10.50;;
30247;SDS011;17063;50.892;4.702;2022-12-18T14:58:44;26.38;;;12.07;;
30247;SDS011;17063;50.892;4.702;2022-12-18T15:01:28;25.35;;;11.65;;
30247;SDS011;17063;50.892;4.702;2022-12-18T15:04:02;22.88;;;10.70;;
30247;SDS011;17063;50.892;4.702;2022-12-18T15:06:35;26.35;;;11.23;;
30247;SDS011;17063;50.892;4.702;2022-12-18T15:09:05;24.52;;;12.55;;
30247;SDS011;17063;50.892;4.702;2022-12-18T15:11:49;24.40;;;11.50;;
30247;SDS011;17063;50.892;4.702;2022-12-18T15:16:58;25.27;;;11.00;;
30247;SDS011;17063;50.892;4.702;2022-12-18T15:19:32;24.00;;;10.95;;
30247;SDS011;17063;50.892;4.702;2022-12-18T15:22:02;24.92;;;11.80;;
30247;SDS011;17063;50.892;4.702;2022-12-18T15:24:32;25.17;;;10.90;;
30247;SDS011;17063;50.892;4.702;2022-12-18T15:26:59;24.55;;;10.88;;
30247;SDS011;17063;50.892;4.702;2022-12-18T15:29:26;23.88;;;11.65;;
30247;SDS011;17063;50.892;4.702;2022-12-18T15:34:31;28.15;;;11.40;;
30247;SDS011;17063;50.892;4.702;2022-12-18T15:37:00;23.88;;;11.90;;
30247;SDS011;17063;50.892;4.702;2022-12-18T15:39:27;26.83;;;11.57;;
30247;SDS011;17063;50.892;4.702;2022-12-18T15:41:54;28.83;;;11.27;;
30247;SDS011;17063;50.892;4.702;2022-12-18T15:44:39;28.65;;;11.05;;
30247;SDS011;17063;50.892;4.702;2022-12-18T15:47:10;25.23;;;11.43;;
30247;SDS011;17063;50.892;4.702;2022-12-18T15:49:38;26.58;;;11.52;;
30247;SDS011;17063;50.892;4.702;2022-12-18T15:52:06;26.42;;;11.80;;
30247;SDS011;17063;50.892;4.702;2022-12-18T15:54:34;25.70;;;11.88;;
30247;SDS011;17063;50.892;4.702;2022-12-18T15:57:20;25.70;;;11.55;;
30247;SDS011;17063;50.892;4.702;2022-12-18T15:59:53;27.83;;;13.38;;
30247;SDS011;17063;50.892;4.702;2022-12-18T16:02:24;27.10;;;11.68;;
30247;SDS011;17063;50.892;4.702;2022-12-18T16:04:51;25.05;;;11.55;;
30247;SDS011;17063;50.892;4.702;2022-12-18T16:07:18;25.23;;;10.90;;
30247;SDS011;17063;50.892;4.702;2022-12-18T16:09:51;26.90;;;12.15;;
30247;SDS011;17063;50.892;4.702;2022-12-18T16:12:22;27.65;;;12.10;;
30247;SDS011;17063;50.892;4.702;2022-12-18T16:14:52;29.40;;;12.55;;
30247;SDS011;17063;50.892;4.702;2022-12-18T16:17:20;28.88;;;11.93;;
30247;SDS011;17063;50.892;4.702;2022-12-18T16:19:52;25.90;;;12.13;;
30247;SDS011;17063;50.892;4.702;2022-12-18T16:22:21;25.33;;;11.95;;
30247;SDS011;17063;50.892;4.702;2022-12-18T16:24:52;28.45;;;11.68;;
30247;SDS011;17063;50.892;4.702;2022-12-18T16:27:25;24.27;;;11.00;;
30247;SDS011;17063;50.892;4.702;2022-12-18T16:29:53;29.30;;;12.25;;
30247;SDS011;17063;50.892;4.702;2022-12-18T16:32:20;27.40;;;12.25;;
30247;SDS011;17063;50.892;4.702;2022-12-18T16:34:48;26.70;;;12.82;;
30247;SDS011;17063;50.892;4.702;2022-12-18T16:37:15;28.75;;;11.98;;
30247;SDS011;17063;50.892;4.702;2022-12-18T16:39:43;28.02;;;12.45;;
30247;SDS011;17063;50.892;4.702;2022-12-18T16:42:12;29.35;;;13.10;;
30247;SDS011;17063;50.892;4.702;2022-12-18T16:44:43;29.38;;;13.50;;
30247;SDS011;17063;50.892;4.702;2022-12-18T16:47:10;28.08;;;12.57;;
30247;SDS011;17063;50.892;4.702;2022-12-18T16:49:42;29.52;;;12.10;;
30247;SDS011;17063;50.892;4.702;2022-12-18T16:52:17;25.35;;;11.63;;
30247;SDS011;17063;50.892;4.702;2022-12-18T16:54:45;27.92;;;12.73;;
30247;SDS011;17063;50.892;4.702;2022-12-18T16:57:14;28.27;;;11.32;;
30247;SDS011;17063;50.892;4.702;2022-12-18T16:59:43;27.30;;;11.90;;
30247;SDS011;17063;50.892;4.702;2022-12-18T17:02:12;30.85;;;11.98;;
30247;SDS011;17063;50.892;4.702;2022-12-18T17:04:48;32.42;;;13.45;;